Time;durP1;ratioP1;P1;durP2;ratioP2;P2;SDS_P1;SDS_P2;PMS_P1;PMS_P2;Temp;Humidity;BMP_temperature;BMP_pressure;BME280_temperature;BME280_humidity;BME280_pressure;Samples;Min_cycle;Max_cycle;Signal;HPM_P1;HPM_P2
2022/06/03 15:16:06;;;;;;;3.27;0.93;;;;;;;21.29;68.69;100194.41;1796811;78;22559;-57
2022/06/03 15:18:34;;;;;;;2.33;0.88;;;;;;;21.27;67.96;100192.52;1775043;79;21008;-57
2022/06/03 15:21:16;;;;;;;4.08;0.90;;;;;;;21.37;69.17;100185.79;1772125;80;20967;-57
2022/06/03 15:23:44;;;;;;;2.30;0.82;;;;;;;21.49;72.86;100181.76;1760714;80;21090;-57
2022/06/03 15:26:15;;;;;;;1.77;0.70;;;;;;;21.59;67.56;100182.19;1765639;80;21039;-58
2022/06/03 15:28:52;;;;;;;1.32;0.70;;;;;;;21.65;69.56;100181.41;1747224;81;21070;-58
2022/06/03 15:31:22;;;;;;;2.35;0.80;;;;;;;21.71;64.97;100185.06;1750402;80;20963;-58
2022/06/03 15:33:53;;;;;;;1.37;0.90;;;;;;;21.73;69.88;100179.99;1768828;80;20995;-58
2022/06/03 15:36:23;;;;;;;4.33;0.82;;;;;;;21.76;69.67;100186.24;1777142;80;21451;-58
2022/06/03 15:38:55;;;;;;;1.80;0.70;;;;;;;21.76;67.64;100175.16;1772199;80;21025;-57
2022/06/03 15:41:25;;;;;;;2.47;0.80;;;;;;;21.81;66.91;100183.29;1768029;80;21468;-58
2022/06/03 15:43:55;;;;;;;1.85;0.75;;;;;;;21.82;67.17;100174.41;1766790;80;20990;-55
2022/06/03 15:46:36;;;;;;;1.12;0.75;;;;;;;21.83;65.03;100178.78;1740480;80;21006;-55
2022/06/03 15:49:07;;;;;;;1.00;0.70;;;;;;;21.83;65.36;100170.47;1772324;80;21690;-58
2022/06/03 15:51:46;;;;;;;1.32;0.70;;;;;;;21.78;68.07;100166.52;1769590;80;21006;-58
2022/06/03 15:54:32;;;;;;;1.02;0.70;;;;;;;21.76;71.79;100171.00;1719910;81;20991;-58
2022/06/03 15:57:37;;;;;;;1.45;0.70;;;;;;;21.74;71.02;100165.00;1717157;82;21114;-58
2022/06/03 16:00:16;;;;;;;1.60;0.78;;;;;;;21.72;68.26;100171.43;1711534;82;21529;-58
2022/06/03 16:03:08;;;;;;;1.70;0.80;;;;;;;21.69;64.75;100174.06;1718669;82;21130;-58
2022/06/03 16:05:54;;;;;;;1.20;0.70;;;;;;;21.65;68.34;100168.38;1726057;82;21063;-57
2022/06/03 16:08:45;;;;;;;1.30;0.72;;;;;;;21.64;69.10;100174.27;1710453;82;21580;-58
2022/06/03 16:11:31;;;;;;;1.42;0.82;;;;;;;21.60;70.79;100173.31;1708672;82;21063;-56
2022/06/03 16:14:32;;;;;;;1.95;0.90;;;;;;;21.57;70.34;100176.75;1715783;82;21042;-57
2022/06/03 16:17:27;;;;;;;3.83;0.70;;;;;;;21.54;71.20;100174.06;1712144;83;21073;-56
2022/06/03 16:20:09;;;;;;;2.30;1.15;;;;;;;21.51;71.61;100182.22;1699560;83;21056;-57
2022/06/03 16:23:00;;;;;;;1.77;0.90;;;;;;;21.48;74.23;100182.33;1702295;84;21124;-57
2022/06/03 16:25:31;;;;;;;1.42;0.82;;;;;;;21.46;77.40;100181.05;1777423;80;21023;-57
2022/06/03 16:28:12;;;;;;;1.70;0.95;;;;;;;21.40;77.06;100178.23;1767935;80;21596;-59
2022/06/03 16:31:02;;;;;;;2.52;0.70;;;;;;;21.36;79.69;100177.27;1755633;80;21621;-55
2022/06/03 16:33:51;;;;;;;1.45;0.90;;;;;;;21.31;80.01;100178.25;1749388;80;21056;-58
2022/06/03 16:36:44;;;;;;;1.75;0.80;;;;;;;21.28;78.14;100177.54;1754539;80;20976;-58
2022/06/03 16:39:51;;;;;;;2.00;1.00;;;;;;;21.24;81.36;100180.16;1743177;80;20999;-57
2022/06/03 16:42:47;;;;;;;2.37;0.88;;;;;;;21.18;83.74;100175.14;1701655;82;21187;-57
2022/06/03 16:46:10;;;;;;;2.50;0.90;;;;;;;21.11;82.53;100186.73;1752267;81;20991;-58
2022/06/03 16:49:01;;;;;;;3.10;0.90;;;;;;;21.07;79.36;100182.14;1704719;83;21484;-60
2022/06/03 16:51:50;;;;;;;4.65;1.10;;;;;;;21.08;77.59;100185.16;1750810;81;20976;-59
2022/06/03 16:54:39;;;;;;;3.08;0.90;;;;;;;21.10;79.04;100180.94;1752319;81;21558;-59
2022/06/03 16:57:17;;;;;;;3.20;0.98;;;;;;;21.12;79.73;100185.56;1766929;80;21036;-61
2022/06/03 16:59:43;;;;;;;1.42;0.88;;;;;;;21.09;79.93;100191.73;1766167;80;21046;-60
2022/06/03 17:02:23;;;;;;;2.45;0.98;;;;;;;21.06;82.45;100193.78;1763423;80;21053;-60
2022/06/03 17:04:55;;;;;;;4.37;2.87;;;;;;;21.00;81.26;100193.73;1757266;81;21070;-59
2022/06/03 17:07:35;;;;;;;9.45;3.75;;;;;;;20.95;82.62;100193.08;1697279;83;21079;-58
2022/06/03 17:10:04;;;;;;;4.33;1.92;;;;;;;20.79;85.93;100195.00;1759297;81;21015;-59
2022/06/03 17:12:30;;;;;;;16.15;7.08;;;;;;;20.63;89.84;100195.25;1755517;80;21106;-59
2022/06/03 17:14:57;;;;;;;13.98;4.75;;;;;;;20.49;94.17;100199.33;1755612;80;21066;-59
2022/06/03 17:17:29;;;;;;;3.72;1.20;;;;;;;20.33;97.82;100190.14;1746910;81;21146;-59
2022/06/03 17:20:22;;;;;;;3.72;1.17;;;;;;;20.17;100.00;100195.89;1756102;81;21600;-59
2022/06/03 17:23:19;;;;;;;2.00;1.17;;;;;;;20.07;100.00;100200.36;1766554;80;21066;-58
2022/06/03 17:25:49;;;;;;;2.60;1.00;;;;;;;19.98;100.00;100189.05;1767423;80;21054;-59
2022/06/03 17:28:42;;;;;;;2.95;1.40;;;;;;;19.88;100.00;100190.97;1754005;80;21652;-57
2022/06/03 17:31:17;;;;;;;1.92;1.10;;;;;;;19.81;100.00;100180.14;1713523;82;21626;-57
2022/06/03 17:34:10;;;;;;;1.65;1.00;;;;;;;19.71;100.00;100184.59;1754182;81;21063;-57
2022/06/03 17:37:00;;;;;;;2.15;1.20;;;;;;;19.59;100.00;100192.70;1742566;80;21039;-57
2022/06/03 17:39:54;;;;;;;2.55;1.40;;;;;;;19.46;100.00;100188.91;1751039;80;21552;-57
2022/06/03 17:42:29;;;;;;;2.20;1.27;;;;;;;19.36;100.00;100188.61;1747027;80;21571;-58
2022/06/03 17:45:21;;;;;;;3.30;1.25;;;;;;;19.20;100.00;100192.13;1756275;80;21133;-57
2022/06/03 17:48:10;;;;;;;2.75;1.40;;;;;;;19.07;100.00;100191.06;1752958;80;21518;-57
2022/06/03 17:55:19;;;;;;;3.67;1.12;;;;;;;18.93;100.00;100198.62;1746629;81;21071;-57
2022/06/03 17:56:42;;;;;;;3.08;1.30;;;;;;;18.64;100.00;100199.08;1748898;80;20976;-56
2022/06/03 17:59:44;;;;;;;6.08;1.40;;;;;;;18.53;100.00;100202.42;1752254;80;20951;-56
2022/06/03 18:02:36;;;;;;;2.50;1.45;;;;;;;18.40;100.00;100205.44;1747161;81;21050;-56
2022/06/03 18:05:17;;;;;;;2.42;1.35;;;;;;;18.23;100.00;100201.16;1751575;80;21030;-57
2022/06/03 18:08:07;;;;;;;3.30;1.45;;;;;;;18.09;100.00;100209.47;1767717;81;21051;-56
2022/06/03 18:10:36;;;;;;;3.12;1.20;;;;;;;17.97;100.00;100209.18;1744838;81;21584;-56
2022/06/03 18:13:24;;;;;;;1.87;1.30;;;;;;;17.85;100.00;100208.91;1746365;81;21051;-56
2022/06/03 18:16:04;;;;;;;2.42;1.20;;;;;;;17.76;100.00;100217.07;1749112;81;21071;-57
2022/06/03 18:18:35;;;;;;;2.33;1.45;;;;;;;17.66;100.00;100224.17;1756624;81;21003;-57
2022/06/03 18:21:44;;;;;;;3.85;1.25;;;;;;;17.53;100.00;100225.52;1746624;82;21110;-57
2022/06/03 18:24:23;;;;;;;2.17;1.40;;;;;;;17.37;100.00;100235.45;1747913;80;21505;-57
2022/06/03 18:27:17;;;;;;;3.08;1.47;;;;;;;17.16;100.00;100234.75;1712919;82;21139;-57
2022/06/03 18:29:55;;;;;;;2.45;1.50;;;;;;;17.03;100.00;100243.80;1696992;83;21023;-57
2022/06/03 18:32:39;;;;;;;3.40;1.75;;;;;;;16.87;100.00;100248.18;1700447;83;21573;-56
2022/06/03 18:35:22;;;;;;;2.85;1.47;;;;;;;16.72;100.00;100251.17;1716634;83;21150;-57
2022/06/03 18:38:34;;;;;;;3.40;1.65;;;;;;;16.58;100.00;100250.89;1651359;83;21146;-57
2022/06/03 18:41:39;;;;;;;3.85;1.62;;;;;;;16.52;100.00;100265.77;1752863;80;21046;-56
2022/06/03 18:44:28;;;;;;;4.25;1.52;;;;;;;16.46;100.00;100271.09;1755055;81;21000;-57
2022/06/03 18:47:19;;;;;;;4.20;1.80;;;;;;;16.30;100.00;100267.73;1753751;80;21083;-58
2022/06/03 18:49:55;;;;;;;4.17;2.15;;;;;;;16.17;100.00;100261.61;1751631;80;20971;-58
2022/06/03 18:52:53;;;;;;;4.15;2.33;;;;;;;16.08;100.00;100268.34;1706734;82;21075;-58
2022/06/03 18:55:48;;;;;;;8.00;2.15;;;;;;;16.02;100.00;100268.13;1746975;81;21549;-58
2022/06/03 18:58:59;;;;;;;3.95;2.20;;;;;;;15.91;100.00;100266.61;1772692;80;21023;-57
2022/06/03 19:01:47;;;;;;;3.25;2.02;;;;;;;15.86;100.00;100273.56;1763901;80;21467;-57
2022/06/03 19:04:42;;;;;;;5.85;2.42;;;;;;;15.80;100.00;100267.87;1769207;80;20972;-57
2022/06/03 19:07:45;;;;;;;5.35;2.87;;;;;;;15.75;100.00;100276.16;1769836;80;20996;-57
2022/06/03 19:10:24;;;;;;;6.00;2.52;;;;;;;15.65;100.00;100274.91;1700710;83;21076;-58
2022/06/03 19:13:06;;;;;;;5.08;2.67;;;;;;;15.57;100.00;100274.17;1748663;80;21008;-57
2022/06/03 19:16:02;;;;;;;5.20;2.60;;;;;;;15.52;100.00;100276.99;1751647;80;21518;-59
2022/06/03 19:18:44;;;;;;;6.53;2.85;;;;;;;15.46;100.00;100273.44;1766377;80;21588;-58
2022/06/03 19:22:01;;;;;;;6.00;3.08;;;;;;;15.38;100.00;100274.06;1761029;80;21117;-58
2022/06/03 19:24:58;;;;;;;4.28;2.67;;;;;;;15.33;100.00;100272.77;1755169;80;21078;-58
2022/06/03 19:27:34;;;;;;;5.55;3.22;;;;;;;15.23;100.00;100281.09;1781297;80;21121;-58
2022/06/03 19:30:13;;;;;;;8.43;4.10;;;;;;;15.13;100.00;100279.80;1758499;80;20996;-58
2022/06/03 19:32:39;;;;;;;6.33;3.92;;;;;;;15.04;100.00;100286.47;1752290;80;21099;-59
2022/06/03 19:35:20;;;;;;;6.45;3.60;;;;;;;14.96;100.00;100282.97;1765998;80;21042;-58
2022/06/03 19:38:26;;;;;;;5.10;3.25;;;;;;;14.89;100.00;100288.78;1766823;80;21058;-57
2022/06/03 19:41:24;;;;;;;6.60;3.27;;;;;;;14.88;100.00;100279.47;1758061;80;21555;-57
2022/06/03 19:44:21;;;;;;;4.42;3.22;;;;;;;14.85;100.00;100289.09;1757982;80;21115;-58
2022/06/03 19:47:15;;;;;;;6.70;3.98;;;;;;;14.76;100.00;100292.19;1756303;80;21066;-58
2022/06/03 19:53:21;;;;;;;6.87;3.90;;;;;;;14.57;100.00;100284.92;1761399;80;21487;-58
2022/06/03 19:55:58;;;;;;;6.20;4.00;;;;;;;14.56;100.00;100284.09;1757140;80;21019;-58
2022/06/03 19:58:38;;;;;;;8.55;4.70;;;;;;;14.55;100.00;100280.29;1773607;80;21031;-58
2022/06/03 20:01:05;;;;;;;8.83;4.80;;;;;;;14.53;100.00;100285.22;1745137;80;21034;-58
2022/06/03 20:03:39;;;;;;;6.83;4.25;;;;;;;14.47;100.00;100281.70;1776150;80;21031;-58
2022/06/03 20:06:21;;;;;;;11.40;4.72;;;;;;;14.42;100.00;100285.84;1755362;80;21518;-58
2022/06/03 20:09:33;;;;;;;7.60;4.40;;;;;;;14.41;100.00;100286.96;1757205;80;21527;-58
2022/06/03 20:14:56;;;;;;;9.53;4.15;;;;;;;14.38;100.00;100295.75;1760684;80;21466;-58
2022/06/03 20:17:25;;;;;;;6.05;3.52;;;;;;;14.32;100.00;100296.83;1756496;80;21107;-58
2022/06/03 20:20:01;;;;;;;7.10;3.80;;;;;;;14.24;100.00;100294.70;1765067;80;21003;-58
2022/06/03 20:22:48;;;;;;;6.65;3.47;;;;;;;14.16;100.00;100293.38;1753847;80;21585;-58
2022/06/03 20:25:32;;;;;;;;;;;;;;;14.13;100.00;100299.41;1757846;81;21431;-58
2022/06/03 20:28:33;;;;;;;10.38;3.75;;;;;;;14.13;100.00;100302.70;1760665;80;20131;-57
2022/06/03 20:31:17;;;;;;;5.90;3.30;;;;;;;14.06;100.00;100306.29;1745444;81;21058;-58
2022/06/03 20:34:10;;;;;;;5.40;3.20;;;;;;;14.00;100.00;100302.73;1732331;81;21055;-58
2022/06/03 20:36:49;;;;;;;5.65;3.52;;;;;;;13.90;100.00;100300.05;1760868;81;21075;-58
2022/06/03 20:39:43;;;;;;;5.42;3.55;;;;;;;13.76;100.00;100307.22;1743579;81;21063;-58
2022/06/03 20:42:34;;;;;;;5.70;3.45;;;;;;;13.71;100.00;100307.25;1755908;81;21067;-58
2022/06/03 20:45:46;;;;;;;6.25;3.30;;;;;;;13.73;100.00;100307.78;1691363;82;21573;-58
2022/06/03 20:48:34;;;;;;;4.75;3.58;;;;;;;13.70;100.00;100307.80;1756025;80;21074;-58
2022/06/03 20:51:28;;;;;;;5.12;3.67;;;;;;;13.63;100.00;100313.28;1756487;80;21038;-58
2022/06/03 20:54:00;;;;;;;7.03;3.70;;;;;;;13.54;100.00;100309.46;1751055;80;21027;-58
2022/06/03 20:56:36;;;;;;;7.05;3.85;;;;;;;13.50;100.00;100314.66;1742172;81;21008;-58
2022/06/03 20:59:21;;;;;;;5.12;3.70;;;;;;;13.52;100.00;100317.14;1754572;80;20979;-58
2022/06/03 21:02:06;;;;;;;7.58;4.15;;;;;;;13.52;100.00;100333.55;1752833;80;21503;-58
2022/06/03 21:13:06;;;;;;;7.92;3.80;;;;;;;13.33;100.00;100351.06;1751826;80;21576;-57
2022/06/03 21:15:33;;;;;;;7.28;4.45;;;;;;;13.33;100.00;100360.09;1725413;82;21015;-58
2022/06/03 21:17:59;;;;;;;6.72;4.62;;;;;;;13.36;100.00;100355.44;1773362;80;21122;-58
2022/06/03 21:20:37;;;;;;;7.62;4.72;;;;;;;13.36;100.00;100353.25;1702212;82;21081;-58
2022/06/03 21:23:28;;;;;;;10.20;5.33;;;;;;;13.31;100.00;100365.58;1761649;80;21667;-58
2022/06/03 21:25:54;;;;;;;9.03;4.90;;;;;;;13.27;100.00;100363.11;1758519;81;21074;-59
2022/06/03 21:28:21;;;;;;;7.75;4.80;;;;;;;13.24;100.00;100354.92;1752936;80;21074;-58
2022/06/03 21:31:22;;;;;;;9.45;5.25;;;;;;;13.21;100.00;100358.75;1754833;80;20995;-58
2022/06/03 21:34:28;;;;;;;11.10;6.05;;;;;;;13.19;100.00;100359.01;1762657;80;21022;-58
2022/06/03 21:37:09;;;;;;;11.18;5.95;;;;;;;13.15;100.00;100372.13;1748480;80;21103;-57
2022/06/03 21:39:42;;;;;;;7.60;6.10;;;;;;;13.08;100.00;100372.36;1748829;81;21000;-58
2022/06/03 21:42:08;;;;;;;11.70;6.10;;;;;;;13.05;100.00;100366.08;1750653;81;21557;-58
2022/06/03 21:44:44;;;;;;;7.70;5.87;;;;;;;13.12;100.00;100367.20;1748918;81;21094;-58
2022/06/03 21:47:25;;;;;;;6.50;5.28;;;;;;;13.14;100.00;100363.67;1748664;80;21062;-58
2022/06/03 21:50:14;;;;;;;7.10;5.30;;;;;;;13.12;100.00;100366.66;1763306;81;20971;-58
2022/06/03 21:52:57;;;;;;;9.28;6.35;;;;;;;13.05;100.00;100363.89;1690037;84;21086;-59
2022/06/03 21:55:50;;;;;;;8.35;5.20;;;;;;;13.01;100.00;100369.08;1746876;82;21031;-58
2022/06/03 21:58:43;;;;;;;7.60;5.22;;;;;;;13.01;100.00;100373.19;1750329;81;21098;-58
2022/06/03 22:01:13;;;;;;;9.85;5.87;;;;;;;12.98;100.00;100363.63;1751696;80;21113;-58
2022/06/03 22:03:41;;;;;;;9.60;5.45;;;;;;;12.89;100.00;100370.70;1731830;81;21138;-59
2022/06/03 22:06:07;;;;;;;10.70;5.42;;;;;;;12.85;100.00;100373.73;1748806;81;21066;-58
2022/06/03 22:08:35;;;;;;;7.97;4.90;;;;;;;12.88;100.00;100373.72;1749102;81;20992;-58
2022/06/03 22:13:52;;;;;;;12.28;7.05;;;;;;;12.83;100.00;100370.43;1740870;82;20986;-58
2022/06/03 22:16:20;;;;;;;8.58;6.55;;;;;;;12.87;100.00;100369.34;1759296;80;21067;-58
2022/06/03 22:18:48;;;;;;;11.33;6.50;;;;;;;12.93;100.00;100380.00;1757431;80;21010;-58
2022/06/03 22:21:15;;;;;;;7.83;6.47;;;;;;;12.97;100.00;100370.72;1762919;80;21041;-58
2022/06/03 22:23:43;;;;;;;7.33;6.10;;;;;;;13.01;100.00;100370.45;1761116;80;21079;-58
2022/06/03 22:26:15;;;;;;;9.78;6.37;;;;;;;13.01;100.00;100365.52;1760619;80;21047;-59
2022/06/03 22:28:52;;;;;;;10.53;6.10;;;;;;;12.94;100.00;100369.36;1732773;82;21071;-59
2022/06/03 22:31:39;;;;;;;7.58;5.40;;;;;;;12.94;100.00;100372.63;1771374;80;21114;-58
2022/06/03 22:34:31;;;;;;;6.25;5.40;;;;;;;12.95;100.00;100372.91;1760857;80;21039;-57
2022/06/03 22:40:21;;;;;;;8.20;5.62;;;;;;;12.97;100.00;100373.45;1755822;80;21054;-57
2022/06/03 22:43:06;;;;;;;9.50;5.87;;;;;;;12.92;100.00;100374.28;1771511;80;21110;-58
2022/06/03 22:45:32;;;;;;;8.20;5.22;;;;;;;12.84;100.00;100372.63;1764763;80;21031;-57
2022/06/03 22:48:04;;;;;;;8.08;5.67;;;;;;;12.81;100.00;100373.17;1762714;80;21106;-58
2022/06/03 22:50:31;;;;;;;9.30;5.55;;;;;;;12.84;100.00;100376.72;1756203;80;21055;-58
2022/06/03 22:53:01;;;;;;;9.70;5.17;;;;;;;12.84;100.00;100375.35;1768103;80;21063;-58
2022/06/03 22:55:28;;;;;;;8.18;6.58;;;;;;;12.86;100.00;100382.72;1762706;80;21540;-58
2022/06/03 22:57:55;;;;;;;10.90;7.75;;;;;;;12.84;100.00;100376.72;1758391;80;21444;-58
2022/06/03 23:00:22;;;;;;;;;;;;;;;12.77;100.00;100370.70;1771483;80;21010;-58
2022/06/03 23:02:49;;;;;;;9.90;6.17;;;;;;;12.66;100.00;100361.66;1770232;80;20096;-57
2022/06/03 23:05:16;;;;;;;10.18;7.20;;;;;;;12.66;100.00;100361.66;1765704;80;21647;-58
2022/06/03 23:07:43;;;;;;;7.05;5.95;;;;;;;12.64;100.00;100354.30;1772881;80;21098;-57
2022/06/03 23:10:09;;;;;;;10.53;6.08;;;;;;;12.62;100.00;100348.81;1765941;80;20963;-58
2022/06/03 23:12:35;;;;;;;8.00;6.37;;;;;;;12.58;100.00;100358.09;1760249;80;21059;-57
2022/06/03 23:15:06;;;;;;;7.50;5.87;;;;;;;12.53;100.00;100359.46;1760685;80;21513;-57
2022/06/03 23:17:33;;;;;;;7.62;5.92;;;;;;;12.51;100.00;100351.23;1690808;83;21028;-57
2022/06/03 23:20:01;;;;;;;8.58;6.05;;;;;;;12.48;100.00;100352.06;1729873;82;21059;-58
2022/06/03 23:22:28;;;;;;;7.12;5.45;;;;;;;12.47;100.00;100353.69;1716106;83;21095;-58
2022/06/03 23:24:54;;;;;;;7.40;5.70;;;;;;;12.45;100.00;100360.80;1720361;83;21023;-58
2022/06/03 23:27:20;;;;;;;;;;;;;;;12.41;100.00;100367.88;1717264;82;21094;-58
2022/06/03 23:29:48;;;;;;;7.35;6.55;;;;;;;12.38;100.00;100374.42;1714046;82;20133;-58
2022/06/03 23:32:15;;;;;;;8.08;5.95;;;;;;;12.26;100.00;100380.64;1725713;82;21123;-58
2022/06/03 23:34:41;;;;;;;;;;;;;;;12.22;100.00;100369.44;1714362;82;21078;-58
2022/06/03 23:37:08;;;;;;;8.98;5.17;;;;;;;12.22;100.00;100370.02;1721217;82;20114;-58
2022/06/03 23:39:35;;;;;;;6.58;5.03;;;;;;;12.17;100.00;100366.70;1727529;82;21051;-58
2022/06/03 23:47:35;;;;;;;8.33;5.97;;;;;;;12.17;100.00;100357.70;1726167;83;21079;-58
2022/06/03 23:50:01;;;;;;;8.63;5.40;;;;;;;12.15;100.00;100353.06;1723192;83;21073;-58
2022/06/03 23:52:28;;;;;;;6.90;5.35;;;;;;;12.14;100.00;100362.33;1715471;82;21110;-58
2022/06/03 23:54:54;;;;;;;;;;;;;;;12.16;100.00;100362.87;1720066;83;21086;-58
2022/06/03 23:57:21;;;;;;;8.88;5.92;;;;;;;12.21;100.00;100368.36;1720520;83;20146;-58
2022/06/03 23:59:47;;;;;;;10.23;5.45;;;;;;;12.23;100.00;100369.73;1717324;82;21079;-57
